sensor_id;sensor_type;location;lat;lon;timestamp;P1;durP1;ratioP1;P2;durP2;ratioP2
5995;SDS011;3026;53.612;7.278;2023-01-19T00:00:15;1.30;;;1.20;;
5995;SDS011;3026;53.612;7.278;2023-01-19T00:02:42;4.13;;;1.10;;
5995;SDS011;3026;53.612;7.278;2023-01-19T00:05:12;3.20;;;1.33;;
5995;SDS011;3026;53.612;7.278;2023-01-19T00:07:40;1.97;;;1.10;;
5995;SDS011;3026;53.612;7.278;2023-01-19T00:10:08;3.17;;;1.00;;
5995;SDS011;3026;53.612;7.278;2023-01-19T00:12:36;1.13;;;0.80;;
5995;SDS011;3026;53.612;7.278;2023-01-19T00:15:03;3.90;;;1.03;;
5995;SDS011;3026;53.612;7.278;2023-01-19T00:17:31;2.43;;;1.10;;
5995;SDS011;3026;53.612;7.278;2023-01-19T00:19:58;2.43;;;1.20;;
5995;SDS011;3026;53.612;7.278;2023-01-19T00:22:25;4.00;;;1.30;;
5995;SDS011;3026;53.612;7.278;2023-01-19T00:24:53;1.10;;;1.00;;
5995;SDS011;3026;53.612;7.278;2023-01-19T00:27:20;3.87;;;1.33;;
5995;SDS011;3026;53.612;7.278;2023-01-19T00:29:47;4.47;;;1.43;;
5995;SDS011;3026;53.612;7.278;2023-01-19T00:32:15;6.00;;;1.73;;
5995;SDS011;3026;53.612;7.278;2023-01-19T00:34:43;5.23;;;1.97;;
5995;SDS011;3026;53.612;7.278;2023-01-19T00:37:13;6.67;;;2.30;;
5995;SDS011;3026;53.612;7.278;2023-01-19T00:39:41;3.40;;;2.63;;
5995;SDS011;3026;53.612;7.278;2023-01-19T00:42:11;5.87;;;3.10;;
5995;SDS011;3026;53.612;7.278;2023-01-19T00:44:55;6.03;;;3.23;;
5995;SDS011;3026;53.612;7.278;2023-01-19T00:47:23;4.37;;;2.70;;
5995;SDS011;3026;53.612;7.278;2023-01-19T00:49:50;4.53;;;2.70;;
5995;SDS011;3026;53.612;7.278;2023-01-19T00:52:17;5.90;;;2.87;;
5995;SDS011;3026;53.612;7.278;2023-01-19T00:54:44;4.87;;;3.10;;
5995;SDS011;3026;53.612;7.278;2023-01-19T00:57:13;6.73;;;3.07;;
5995;SDS011;3026;53.612;7.278;2023-01-19T00:59:40;5.33;;;3.60;;
5995;SDS011;3026;53.612;7.278;2023-01-19T01:02:08;5.57;;;2.90;;
5995;SDS011;3026;53.612;7.278;2023-01-19T01:04:35;6.60;;;3.50;;
5995;SDS011;3026;53.612;7.278;2023-01-19T01:07:03;3.20;;;2.90;;
5995;SDS011;3026;53.612;7.278;2023-01-19T01:09:30;5.00;;;3.20;;
5995;SDS011;3026;53.612;7.278;2023-01-19T01:11:57;4.70;;;3.30;;
5995;SDS011;3026;53.612;7.278;2023-01-19T01:14:25;3.83;;;2.97;;
5995;SDS011;3026;53.612;7.278;2023-01-19T01:16:52;3.53;;;2.30;;
5995;SDS011;3026;53.612;7.278;2023-01-19T01:19:20;4.83;;;2.67;;
5995;SDS011;3026;53.612;7.278;2023-01-19T01:21:47;4.57;;;2.00;;
5995;SDS011;3026;53.612;7.278;2023-01-19T01:24:13;3.93;;;2.00;;
5995;SDS011;3026;53.612;7.278;2023-01-19T01:26:41;6.20;;;2.23;;
5995;SDS011;3026;53.612;7.278;2023-01-19T01:29:08;3.60;;;2.33;;
5995;SDS011;3026;53.612;7.278;2023-01-19T01:31:36;4.70;;;2.20;;
5995;SDS011;3026;53.612;7.278;2023-01-19T01:34:03;7.30;;;3.30;;
5995;SDS011;3026;53.612;7.278;2023-01-19T01:36:30;3.13;;;2.20;;
5995;SDS011;3026;53.612;7.278;2023-01-19T01:38:57;6.00;;;2.20;;
5995;SDS011;3026;53.612;7.278;2023-01-19T01:41:24;6.47;;;2.20;;
5995;SDS011;3026;53.612;7.278;2023-01-19T01:43:52;4.30;;;2.70;;
5995;SDS011;3026;53.612;7.278;2023-01-19T01:46:23;4.00;;;2.20;;
5995;SDS011;3026;53.612;7.278;2023-01-19T01:48:53;4.33;;;2.47;;
5995;SDS011;3026;53.612;7.278;2023-01-19T01:51:29;5.70;;;2.40;;
5995;SDS011;3026;53.612;7.278;2023-01-19T01:54:02;5.87;;;2.10;;
5995;SDS011;3026;53.612;7.278;2023-01-19T01:56:36;4.70;;;2.53;;
5995;SDS011;3026;53.612;7.278;2023-01-19T01:59:06;4.57;;;2.40;;
5995;SDS011;3026;53.612;7.278;2023-01-19T02:01:37;4.57;;;2.30;;
5995;SDS011;3026;53.612;7.278;2023-01-19T02:04:23;6.80;;;2.67;;
5995;SDS011;3026;53.612;7.278;2023-01-19T02:06:50;4.83;;;2.50;;
5995;SDS011;3026;53.612;7.278;2023-01-19T02:09:35;3.57;;;2.33;;
5995;SDS011;3026;53.612;7.278;2023-01-19T02:12:21;3.60;;;2.60;;
5995;SDS011;3026;53.612;7.278;2023-01-19T02:15:12;4.53;;;2.57;;
5995;SDS011;3026;53.612;7.278;2023-01-19T02:17:41;4.00;;;2.00;;
5995;SDS011;3026;53.612;7.278;2023-01-19T02:20:10;3.80;;;2.40;;
5995;SDS011;3026;53.612;7.278;2023-01-19T02:22:39;6.13;;;2.03;;
5995;SDS011;3026;53.612;7.278;2023-01-19T02:25:14;2.67;;;1.83;;
5995;SDS011;3026;53.612;7.278;2023-01-19T02:27:42;3.80;;;2.00;;
5995;SDS011;3026;53.612;7.278;2023-01-19T02:30:09;3.27;;;2.17;;
5995;SDS011;3026;53.612;7.278;2023-01-19T02:32:36;2.73;;;2.00;;
5995;SDS011;3026;53.612;7.278;2023-01-19T02:35:04;3.23;;;1.63;;
5995;SDS011;3026;53.612;7.278;2023-01-19T02:37:32;4.20;;;2.17;;
5995;SDS011;3026;53.612;7.278;2023-01-19T02:40:04;5.13;;;1.70;;
5995;SDS011;3026;53.612;7.278;2023-01-19T02:42:38;5.07;;;2.23;;
5995;SDS011;3026;53.612;7.278;2023-01-19T02:45:09;4.27;;;1.50;;
5995;SDS011;3026;53.612;7.278;2023-01-19T02:47:42;3.87;;;1.50;;
5995;SDS011;3026;53.612;7.278;2023-01-19T02:56:18;3.77;;;1.60;;
5995;SDS011;3026;53.612;7.278;2023-01-19T02:58:59;2.30;;;1.27;;
5995;SDS011;3026;53.612;7.278;2023-01-19T03:01:32;5.50;;;1.20;;
5995;SDS011;3026;53.612;7.278;2023-01-19T03:04:08;2.87;;;0.90;;
5995;SDS011;3026;53.612;7.278;2023-01-19T03:06:44;1.53;;;1.20;;
5995;SDS011;3026;53.612;7.278;2023-01-19T03:09:17;2.53;;;1.10;;
5995;SDS011;3026;53.612;7.278;2023-01-19T03:11:58;3.53;;;1.10;;
5995;SDS011;3026;53.612;7.278;2023-01-19T03:14:32;2.23;;;1.20;;
5995;SDS011;3026;53.612;7.278;2023-01-19T03:17:03;2.90;;;1.50;;
5995;SDS011;3026;53.612;7.278;2023-01-19T03:19:35;2.43;;;1.20;;
5995;SDS011;3026;53.612;7.278;2023-01-19T03:22:05;3.43;;;1.80;;
5995;SDS011;3026;53.612;7.278;2023-01-19T03:24:36;3.50;;;1.97;;
5995;SDS011;3026;53.612;7.278;2023-01-19T03:27:08;3.00;;;1.97;;
5995;SDS011;3026;53.612;7.278;2023-01-19T03:29:40;1.97;;;1.50;;
5995;SDS011;3026;53.612;7.278;2023-01-19T03:32:11;4.03;;;1.90;;
5995;SDS011;3026;53.612;7.278;2023-01-19T03:34:41;2.33;;;2.00;;
5995;SDS011;3026;53.612;7.278;2023-01-19T03:37:10;2.80;;;1.90;;
5995;SDS011;3026;53.612;7.278;2023-01-19T03:39:41;2.83;;;1.87;;
5995;SDS011;3026;53.612;7.278;2023-01-19T03:42:10;3.30;;;1.77;;
5995;SDS011;3026;53.612;7.278;2023-01-19T03:44:41;3.30;;;2.43;;
5995;SDS011;3026;53.612;7.278;2023-01-19T03:47:11;1.77;;;1.67;;
5995;SDS011;3026;53.612;7.278;2023-01-19T03:49:40;4.03;;;2.10;;
5995;SDS011;3026;53.612;7.278;2023-01-19T03:52:09;3.37;;;2.00;;
5995;SDS011;3026;53.612;7.278;2023-01-19T03:54:37;2.47;;;2.27;;
5995;SDS011;3026;53.612;7.278;2023-01-19T03:57:05;2.87;;;1.90;;
5995;SDS011;3026;53.612;7.278;2023-01-19T03:59:32;4.07;;;2.80;;
5995;SDS011;3026;53.612;7.278;2023-01-19T04:02:01;5.47;;;2.00;;
5995;SDS011;3026;53.612;7.278;2023-01-19T04:04:28;4.07;;;2.57;;
5995;SDS011;3026;53.612;7.278;2023-01-19T04:06:55;4.30;;;2.67;;
5995;SDS011;3026;53.612;7.278;2023-01-19T04:09:23;2.90;;;2.30;;
5995;SDS011;3026;53.612;7.278;2023-01-19T04:11:50;2.90;;;2.60;;
5995;SDS011;3026;53.612;7.278;2023-01-19T04:14:17;4.43;;;2.33;;
5995;SDS011;3026;53.612;7.278;2023-01-19T04:16:44;5.10;;;2.57;;
5995;SDS011;3026;53.612;7.278;2023-01-19T04:19:12;3.27;;;2.47;;
5995;SDS011;3026;53.612;7.278;2023-01-19T04:21:39;3.70;;;2.53;;
5995;SDS011;3026;53.612;7.278;2023-01-19T04:24:07;4.77;;;2.47;;
5995;SDS011;3026;53.612;7.278;2023-01-19T04:26:35;2.63;;;2.40;;
5995;SDS011;3026;53.612;7.278;2023-01-19T04:29:02;3.00;;;2.50;;
5995;SDS011;3026;53.612;7.278;2023-01-19T04:31:29;2.43;;;2.23;;
5995;SDS011;3026;53.612;7.278;2023-01-19T04:33:56;4.93;;;2.53;;
5995;SDS011;3026;53.612;7.278;2023-01-19T04:36:25;2.63;;;2.43;;
5995;SDS011;3026;53.612;7.278;2023-01-19T04:38:52;2.40;;;2.20;;
5995;SDS011;3026;53.612;7.278;2023-01-19T04:41:19;4.30;;;2.20;;
5995;SDS011;3026;53.612;7.278;2023-01-19T04:43:46;4.17;;;2.37;;
5995;SDS011;3026;53.612;7.278;2023-01-19T04:46:13;3.23;;;2.50;;
5995;SDS011;3026;53.612;7.278;2023-01-19T04:48:40;3.13;;;2.10;;
5995;SDS011;3026;53.612;7.278;2023-01-19T04:51:07;3.17;;;2.20;;
5995;SDS011;3026;53.612;7.278;2023-01-19T04:53:35;5.50;;;2.27;;
5995;SDS011;3026;53.612;7.278;2023-01-19T04:56:02;3.00;;;1.97;;
5995;SDS011;3026;53.612;7.278;2023-01-19T04:58:30;3.50;;;2.30;;
5995;SDS011;3026;53.612;7.278;2023-01-19T05:00:57;3.37;;;2.10;;
5995;SDS011;3026;53.612;7.278;2023-01-19T05:03:24;7.80;;;2.20;;
5995;SDS011;3026;53.612;7.278;2023-01-19T05:05:51;3.47;;;1.77;;
5995;SDS011;3026;53.612;7.278;2023-01-19T05:08:18;2.80;;;1.87;;
5995;SDS011;3026;53.612;7.278;2023-01-19T05:10:47;2.87;;;2.20;;
5995;SDS011;3026;53.612;7.278;2023-01-19T05:13:14;2.77;;;2.37;;
5995;SDS011;3026;53.612;7.278;2023-01-19T05:15:41;3.57;;;2.20;;
5995;SDS011;3026;53.612;7.278;2023-01-19T05:18:08;2.23;;;2.03;;
5995;SDS011;3026;53.612;7.278;2023-01-19T05:20:35;3.63;;;2.13;;
5995;SDS011;3026;53.612;7.278;2023-01-19T05:23:02;2.37;;;1.93;;
5995;SDS011;3026;53.612;7.278;2023-01-19T05:25:29;3.47;;;2.30;;
5995;SDS011;3026;53.612;7.278;2023-01-19T05:27:57;2.70;;;2.10;;
5995;SDS011;3026;53.612;7.278;2023-01-19T05:30:24;3.47;;;2.50;;
5995;SDS011;3026;53.612;7.278;2023-01-19T05:32:51;3.50;;;2.40;;
5995;SDS011;3026;53.612;7.278;2023-01-19T05:35:18;7.73;;;2.70;;
5995;SDS011;3026;53.612;7.278;2023-01-19T05:37:45;5.07;;;2.47;;
5995;SDS011;3026;53.612;7.278;2023-01-19T05:40:12;4.93;;;2.60;;
5995;SDS011;3026;53.612;7.278;2023-01-19T05:42:39;4.57;;;2.50;;
5995;SDS011;3026;53.612;7.278;2023-01-19T05:45:08;4.83;;;2.60;;
5995;SDS011;3026;53.612;7.278;2023-01-19T05:47:36;3.70;;;2.47;;
5995;SDS011;3026;53.612;7.278;2023-01-19T05:50:04;3.77;;;2.57;;
5995;SDS011;3026;53.612;7.278;2023-01-19T05:52:31;4.70;;;2.57;;
5995;SDS011;3026;53.612;7.278;2023-01-19T05:54:58;9.23;;;2.73;;
5995;SDS011;3026;53.612;7.278;2023-01-19T05:57:25;4.30;;;3.00;;
5995;SDS011;3026;53.612;7.278;2023-01-19T05:59:52;4.27;;;2.70;;
5995;SDS011;3026;53.612;7.278;2023-01-19T06:02:20;3.37;;;2.57;;
5995;SDS011;3026;53.612;7.278;2023-01-19T06:04:53;5.20;;;2.57;;
5995;SDS011;3026;53.612;7.278;2023-01-19T06:07:20;4.17;;;3.00;;
5995;SDS011;3026;53.612;7.278;2023-01-19T06:09:47;8.23;;;3.20;;
5995;SDS011;3026;53.612;7.278;2023-01-19T06:12:14;4.83;;;2.60;;
5995;SDS011;3026;53.612;7.278;2023-01-19T06:14:41;4.63;;;2.40;;
5995;SDS011;3026;53.612;7.278;2023-01-19T06:17:08;5.23;;;2.37;;
5995;SDS011;3026;53.612;7.278;2023-01-19T06:19:36;4.87;;;2.20;;
5995;SDS011;3026;53.612;7.278;2023-01-19T06:22:03;3.97;;;1.93;;
5995;SDS011;3026;53.612;7.278;2023-01-19T06:24:30;2.73;;;1.67;;
5995;SDS011;3026;53.612;7.278;2023-01-19T06:26:57;3.90;;;1.40;;
5995;SDS011;3026;53.612;7.278;2023-01-19T06:29:25;2.60;;;1.47;;
5995;SDS011;3026;53.612;7.278;2023-01-19T06:31:52;2.87;;;1.83;;
5995;SDS011;3026;53.612;7.278;2023-01-19T06:34:19;3.97;;;1.40;;
5995;SDS011;3026;53.612;7.278;2023-01-19T06:36:47;4.43;;;1.63;;
5995;SDS011;3026;53.612;7.278;2023-01-19T06:39:15;7.47;;;1.13;;
5995;SDS011;3026;53.612;7.278;2023-01-19T06:41:42;7.17;;;1.07;;
5995;SDS011;3026;53.612;7.278;2023-01-19T06:44:08;3.27;;;1.30;;
5995;SDS011;3026;53.612;7.278;2023-01-19T06:46:35;2.57;;;1.00;;
5995;SDS011;3026;53.612;7.278;2023-01-19T06:49:02;5.43;;;1.03;;
5995;SDS011;3026;53.612;7.278;2023-01-19T06:51:29;4.90;;;1.20;;
5995;SDS011;3026;53.612;7.278;2023-01-19T06:53:57;5.20;;;1.53;;
5995;SDS011;3026;53.612;7.278;2023-01-19T06:56:25;3.67;;;1.30;;
5995;SDS011;3026;53.612;7.278;2023-01-19T06:58:52;2.87;;;1.20;;
5995;SDS011;3026;53.612;7.278;2023-01-19T07:01:19;5.30;;;1.50;;
5995;SDS011;3026;53.612;7.278;2023-01-19T07:03:46;2.90;;;1.13;;
5995;SDS011;3026;53.612;7.278;2023-01-19T07:06:13;2.80;;;1.70;;
5995;SDS011;3026;53.612;7.278;2023-01-19T07:08:40;1.97;;;1.20;;
5995;SDS011;3026;53.612;7.278;2023-01-19T07:11:10;5.33;;;1.97;;
5995;SDS011;3026;53.612;7.278;2023-01-19T07:13:38;3.63;;;1.50;;
5995;SDS011;3026;53.612;7.278;2023-01-19T07:16:05;3.97;;;1.83;;
5995;SDS011;3026;53.612;7.278;2023-01-19T07:18:34;7.97;;;2.03;;
5995;SDS011;3026;53.612;7.278;2023-01-19T07:21:01;4.43;;;2.50;;
5995;SDS011;3026;53.612;7.278;2023-01-19T07:23:28;3.60;;;2.03;;
5995;SDS011;3026;53.612;7.278;2023-01-19T07:25:55;6.27;;;2.47;;
5995;SDS011;3026;53.612;7.278;2023-01-19T07:28:24;6.40;;;2.40;;
5995;SDS011;3026;53.612;7.278;2023-01-19T07:30:50;8.10;;;2.53;;
5995;SDS011;3026;53.612;7.278;2023-01-19T07:33:18;4.77;;;2.27;;
5995;SDS011;3026;53.612;7.278;2023-01-19T07:35:47;5.13;;;1.80;;
5995;SDS011;3026;53.612;7.278;2023-01-19T07:38:14;5.43;;;2.03;;
5995;SDS011;3026;53.612;7.278;2023-01-19T07:40:42;3.60;;;1.60;;
5995;SDS011;3026;53.612;7.278;2023-01-19T07:43:09;4.37;;;1.60;;
5995;SDS011;3026;53.612;7.278;2023-01-19T07:45:37;6.30;;;1.50;;
5995;SDS011;3026;53.612;7.278;2023-01-19T07:48:04;6.90;;;1.53;;
5995;SDS011;3026;53.612;7.278;2023-01-19T07:50:32;4.33;;;1.03;;
5995;SDS011;3026;53.612;7.278;2023-01-19T07:53:03;4.67;;;1.10;;
5995;SDS011;3026;53.612;7.278;2023-01-19T07:55:30;4.80;;;0.90;;
5995;SDS011;3026;53.612;7.278;2023-01-19T07:57:58;7.03;;;1.63;;
5995;SDS011;3026;53.612;7.278;2023-01-19T08:00:25;3.87;;;1.30;;
5995;SDS011;3026;53.612;7.278;2023-01-19T08:02:57;8.70;;;1.30;;
5995;SDS011;3026;53.612;7.278;2023-01-19T08:05:24;10.97;;;1.33;;
5995;SDS011;3026;53.612;7.278;2023-01-19T08:07:51;4.57;;;0.87;;
5995;SDS011;3026;53.612;7.278;2023-01-19T08:10:20;4.33;;;0.83;;
5995;SDS011;3026;53.612;7.278;2023-01-19T08:12:49;4.83;;;0.77;;
5995;SDS011;3026;53.612;7.278;2023-01-19T08:15:17;3.20;;;1.00;;
5995;SDS011;3026;53.612;7.278;2023-01-19T08:17:44;6.87;;;1.13;;
5995;SDS011;3026;53.612;7.278;2023-01-19T08:20:13;5.20;;;1.13;;
5995;SDS011;3026;53.612;7.278;2023-01-19T08:22:40;6.03;;;2.17;;
5995;SDS011;3026;53.612;7.278;2023-01-19T08:25:07;6.80;;;1.17;;
5995;SDS011;3026;53.612;7.278;2023-01-19T08:27:35;11.87;;;1.30;;
5995;SDS011;3026;53.612;7.278;2023-01-19T08:30:02;3.90;;;0.90;;
5995;SDS011;3026;53.612;7.278;2023-01-19T08:32:29;7.90;;;1.50;;
5995;SDS011;3026;53.612;7.278;2023-01-19T08:34:57;4.77;;;1.53;;
5995;SDS011;3026;53.612;7.278;2023-01-19T08:37:25;5.57;;;1.23;;
5995;SDS011;3026;53.612;7.278;2023-01-19T08:39:52;6.63;;;1.20;;
5995;SDS011;3026;53.612;7.278;2023-01-19T08:42:19;6.03;;;1.63;;
5995;SDS011;3026;53.612;7.278;2023-01-19T08:44:47;2.97;;;0.80;;
5995;SDS011;3026;53.612;7.278;2023-01-19T08:47:14;7.87;;;1.10;;
5995;SDS011;3026;53.612;7.278;2023-01-19T08:49:41;9.90;;;1.83;;
5995;SDS011;3026;53.612;7.278;2023-01-19T08:52:08;6.27;;;1.97;;
5995;SDS011;3026;53.612;7.278;2023-01-19T08:54:36;7.63;;;1.70;;
5995;SDS011;3026;53.612;7.278;2023-01-19T08:57:03;8.97;;;1.57;;
5995;SDS011;3026;53.612;7.278;2023-01-19T08:59:30;9.80;;;2.07;;
5995;SDS011;3026;53.612;7.278;2023-01-19T09:01:57;11.97;;;1.90;;
5995;SDS011;3026;53.612;7.278;2023-01-19T09:04:24;11.57;;;1.87;;
5995;SDS011;3026;53.612;7.278;2023-01-19T09:06:51;4.83;;;1.67;;
5995;SDS011;3026;53.612;7.278;2023-01-19T09:09:19;9.27;;;1.40;;
5995;SDS011;3026;53.612;7.278;2023-01-19T09:11:47;4.50;;;1.30;;
5995;SDS011;3026;53.612;7.278;2023-01-19T09:14:14;5.73;;;1.27;;
5995;SDS011;3026;53.612;7.278;2023-01-19T09:16:41;3.07;;;1.00;;
5995;SDS011;3026;53.612;7.278;2023-01-19T09:19:08;7.60;;;1.70;;
5995;SDS011;3026;53.612;7.278;2023-01-19T09:21:35;9.47;;;1.40;;
5995;SDS011;3026;53.612;7.278;2023-01-19T09:24:02;6.87;;;2.47;;
5995;SDS011;3026;53.612;7.278;2023-01-19T09:26:30;13.40;;;1.70;;
5995;SDS011;3026;53.612;7.278;2023-01-19T09:28:59;6.80;;;1.70;;
5995;SDS011;3026;53.612;7.278;2023-01-19T09:31:26;10.90;;;1.97;;
5995;SDS011;3026;53.612;7.278;2023-01-19T09:33:53;10.67;;;1.60;;
5995;SDS011;3026;53.612;7.278;2023-01-19T09:36:20;8.20;;;1.20;;
5995;SDS011;3026;53.612;7.278;2023-01-19T09:38:47;4.03;;;1.10;;
5995;SDS011;3026;53.612;7.278;2023-01-19T09:41:16;5.57;;;1.20;;
5995;SDS011;3026;53.612;7.278;2023-01-19T09:43:47;9.47;;;2.17;;
5995;SDS011;3026;53.612;7.278;2023-01-19T09:46:20;7.53;;;1.10;;
5995;SDS011;3026;53.612;7.278;2023-01-19T09:48:51;3.83;;;0.93;;
5995;SDS011;3026;53.612;7.278;2023-01-19T09:51:21;9.57;;;1.50;;
5995;SDS011;3026;53.612;7.278;2023-01-19T09:53:51;6.17;;;1.23;;
5995;SDS011;3026;53.612;7.278;2023-01-19T09:56:22;6.37;;;1.10;;
5995;SDS011;3026;53.612;7.278;2023-01-19T09:58:50;5.27;;;1.43;;
5995;SDS011;3026;53.612;7.278;2023-01-19T10:04:24;5.47;;;1.30;;
5995;SDS011;3026;53.612;7.278;2023-01-19T10:06:55;9.80;;;1.60;;
5995;SDS011;3026;53.612;7.278;2023-01-19T10:09:30;8.43;;;1.77;;
5995;SDS011;3026;53.612;7.278;2023-01-19T10:12:03;6.00;;;1.37;;
5995;SDS011;3026;53.612;7.278;2023-01-19T10:14:39;6.10;;;1.67;;
5995;SDS011;3026;53.612;7.278;2023-01-19T10:17:15;7.43;;;1.60;;
5995;SDS011;3026;53.612;7.278;2023-01-19T10:19:52;10.30;;;2.30;;
5995;SDS011;3026;53.612;7.278;2023-01-19T10:22:22;8.17;;;1.43;;
5995;SDS011;3026;53.612;7.278;2023-01-19T10:24:52;10.50;;;2.10;;
5995;SDS011;3026;53.612;7.278;2023-01-19T10:27:22;8.23;;;1.63;;
5995;SDS011;3026;53.612;7.278;2023-01-19T10:29:51;10.27;;;1.70;;
5995;SDS011;3026;53.612;7.278;2023-01-19T10:32:21;9.03;;;2.43;;
5995;SDS011;3026;53.612;7.278;2023-01-19T10:34:50;11.70;;;1.87;;
5995;SDS011;3026;53.612;7.278;2023-01-19T10:37:21;8.67;;;1.70;;
5995;SDS011;3026;53.612;7.278;2023-01-19T10:39:56;6.50;;;1.30;;
5995;SDS011;3026;53.612;7.278;2023-01-19T10:42:26;5.17;;;2.23;;
5995;SDS011;3026;53.612;7.278;2023-01-19T10:44:55;8.77;;;1.43;;
5995;SDS011;3026;53.612;7.278;2023-01-19T10:47:25;7.70;;;1.33;;
5995;SDS011;3026;53.612;7.278;2023-01-19T10:49:59;7.83;;;1.63;;
5995;SDS011;3026;53.612;7.278;2023-01-19T10:52:33;7.13;;;1.87;;
5995;SDS011;3026;53.612;7.278;2023-01-19T10:55:03;9.77;;;1.77;;
5995;SDS011;3026;53.612;7.278;2023-01-19T10:57:34;10.87;;;2.13;;
5995;SDS011;3026;53.612;7.278;2023-01-19T11:00:03;6.97;;;1.97;;
5995;SDS011;3026;53.612;7.278;2023-01-19T11:02:34;8.60;;;1.60;;
5995;SDS011;3026;53.612;7.278;2023-01-19T11:05:20;13.07;;;1.57;;
5995;SDS011;3026;53.612;7.278;2023-01-19T11:07:48;12.77;;;2.00;;
5995;SDS011;3026;53.612;7.278;2023-01-19T11:10:19;6.13;;;1.53;;
5995;SDS011;3026;53.612;7.278;2023-01-19T11:12:53;7.93;;;1.30;;
5995;SDS011;3026;53.612;7.278;2023-01-19T11:15:27;7.00;;;1.47;;
5995;SDS011;3026;53.612;7.278;2023-01-19T11:17:58;7.77;;;1.63;;
5995;SDS011;3026;53.612;7.278;2023-01-19T11:20:28;5.93;;;1.40;;
5995;SDS011;3026;53.612;7.278;2023-01-19T11:23:03;7.80;;;1.67;;
5995;SDS011;3026;53.612;7.278;2023-01-19T11:25:33;5.97;;;1.67;;
5995;SDS011;3026;53.612;7.278;2023-01-19T11:28:01;10.17;;;1.87;;
5995;SDS011;3026;53.612;7.278;2023-01-19T11:30:29;5.37;;;1.90;;
5995;SDS011;3026;53.612;7.278;2023-01-19T11:32:58;7.40;;;1.57;;
5995;SDS011;3026;53.612;7.278;2023-01-19T11:35:30;10.40;;;1.33;;
5995;SDS011;3026;53.612;7.278;2023-01-19T11:38:08;3.60;;;0.93;;
5995;SDS011;3026;53.612;7.278;2023-01-19T11:40:45;7.93;;;1.20;;
5995;SDS011;3026;53.612;7.278;2023-01-19T11:43:17;4.73;;;1.20;;
5995;SDS011;3026;53.612;7.278;2023-01-19T11:45:45;5.00;;;1.27;;
5995;SDS011;3026;53.612;7.278;2023-01-19T11:48:14;3.73;;;1.23;;
5995;SDS011;3026;53.612;7.278;2023-01-19T11:50:47;4.47;;;1.10;;
5995;SDS011;3026;53.612;7.278;2023-01-19T11:53:15;8.27;;;1.83;;
5995;SDS011;3026;53.612;7.278;2023-01-19T11:55:49;3.37;;;1.13;;
5995;SDS011;3026;53.612;7.278;2023-01-19T11:58:21;8.60;;;1.47;;
5995;SDS011;3026;53.612;7.278;2023-01-19T12:00:49;3.53;;;1.20;;
5995;SDS011;3026;53.612;7.278;2023-01-19T12:03:21;6.87;;;1.77;;
5995;SDS011;3026;53.612;7.278;2023-01-19T12:05:56;2.30;;;1.10;;
5995;SDS011;3026;53.612;7.278;2023-01-19T12:08:26;5.83;;;1.27;;
5995;SDS011;3026;53.612;7.278;2023-01-19T12:10:59;10.43;;;1.50;;
5995;SDS011;3026;53.612;7.278;2023-01-19T12:13:28;3.47;;;1.00;;
5995;SDS011;3026;53.612;7.278;2023-01-19T12:15:57;6.73;;;1.30;;
5995;SDS011;3026;53.612;7.278;2023-01-19T12:18:31;5.27;;;1.30;;
5995;SDS011;3026;53.612;7.278;2023-01-19T12:21:02;6.77;;;1.10;;
5995;SDS011;3026;53.612;7.278;2023-01-19T12:23:40;8.17;;;1.30;;
5995;SDS011;3026;53.612;7.278;2023-01-19T12:26:21;6.30;;;1.13;;
5995;SDS011;3026;53.612;7.278;2023-01-19T12:28:53;7.60;;;1.47;;
5995;SDS011;3026;53.612;7.278;2023-01-19T12:31:25;2.20;;;1.00;;
5995;SDS011;3026;53.612;7.278;2023-01-19T12:33:53;3.77;;;1.40;;
5995;SDS011;3026;53.612;7.278;2023-01-19T12:36:36;3.77;;;1.03;;
5995;SDS011;3026;53.612;7.278;2023-01-19T12:39:05;6.80;;;1.10;;
5995;SDS011;3026;53.612;7.278;2023-01-19T12:41:42;3.57;;;1.10;;
5995;SDS011;3026;53.612;7.278;2023-01-19T12:44:14;7.10;;;1.67;;
5995;SDS011;3026;53.612;7.278;2023-01-19T12:46:47;5.93;;;1.50;;
5995;SDS011;3026;53.612;7.278;2023-01-19T12:49:21;4.93;;;1.17;;
5995;SDS011;3026;53.612;7.278;2023-01-19T12:51:52;9.20;;;1.47;;
5995;SDS011;3026;53.612;7.278;2023-01-19T12:54:38;7.77;;;1.53;;
5995;SDS011;3026;53.612;7.278;2023-01-19T12:57:15;5.63;;;1.83;;
5995;SDS011;3026;53.612;7.278;2023-01-19T12:59:46;7.57;;;2.60;;
5995;SDS011;3026;53.612;7.278;2023-01-19T13:05:25;4.70;;;0.90;;
5995;SDS011;3026;53.612;7.278;2023-01-19T13:08:19;2.77;;;0.80;;
5995;SDS011;3026;53.612;7.278;2023-01-19T13:13:44;2.50;;;1.37;;
5995;SDS011;3026;53.612;7.278;2023-01-19T13:16:58;5.73;;;1.27;;
5995;SDS011;3026;53.612;7.278;2023-01-19T13:19:41;3.07;;;1.50;;
5995;SDS011;3026;53.612;7.278;2023-01-19T13:25:28;4.33;;;1.07;;
5995;SDS011;3026;53.612;7.278;2023-01-19T13:27:59;1.60;;;0.60;;
5995;SDS011;3026;53.612;7.278;2023-01-19T13:30:28;0.30;;;0.30;;
5995;SDS011;3026;53.612;7.278;2023-01-19T13:32:58;1.50;;;0.40;;
5995;SDS011;3026;53.612;7.278;2023-01-19T13:35:31;2.10;;;0.40;;
5995;SDS011;3026;53.612;7.278;2023-01-19T13:37:58;0.40;;;0.40;;
5995;SDS011;3026;53.612;7.278;2023-01-19T13:40:30;0.30;;;0.30;;
5995;SDS011;3026;53.612;7.278;2023-01-19T13:43:02;3.00;;;0.50;;
5995;SDS011;3026;53.612;7.278;2023-01-19T13:45:33;0.30;;;0.30;;
5995;SDS011;3026;53.612;7.278;2023-01-19T13:48:04;1.73;;;0.60;;
5995;SDS011;3026;53.612;7.278;2023-01-19T13:50:34;1.60;;;0.40;;
5995;SDS011;3026;53.612;7.278;2023-01-19T13:53:12;0.80;;;0.40;;
5995;SDS011;3026;53.612;7.278;2023-01-19T13:55:43;3.00;;;0.40;;
5995;SDS011;3026;53.612;7.278;2023-01-19T13:58:18;2.37;;;0.37;;
5995;SDS011;3026;53.612;7.278;2023-01-19T14:00:46;2.00;;;0.67;;
5995;SDS011;3026;53.612;7.278;2023-01-19T14:03:15;4.50;;;0.70;;
5995;SDS011;3026;53.612;7.278;2023-01-19T14:05:48;3.43;;;1.30;;
5995;SDS011;3026;53.612;7.278;2023-01-19T14:08:16;3.80;;;0.90;;
5995;SDS011;3026;53.612;7.278;2023-01-19T14:10:45;5.17;;;0.80;;
5995;SDS011;3026;53.612;7.278;2023-01-19T14:13:26;2.23;;;0.80;;
5995;SDS011;3026;53.612;7.278;2023-01-19T14:15:56;3.67;;;0.83;;
5995;SDS011;3026;53.612;7.278;2023-01-19T14:18:25;4.93;;;0.80;;
5995;SDS011;3026;53.612;7.278;2023-01-19T14:20:55;4.37;;;0.70;;
5995;SDS011;3026;53.612;7.278;2023-01-19T14:23:34;2.10;;;0.80;;
5995;SDS011;3026;53.612;7.278;2023-01-19T14:26:05;5.30;;;1.20;;
5995;SDS011;3026;53.612;7.278;2023-01-19T14:28:53;6.93;;;1.10;;
5995;SDS011;3026;53.612;7.278;2023-01-19T14:31:21;5.20;;;1.10;;
5995;SDS011;3026;53.612;7.278;2023-01-19T14:33:52;6.43;;;1.13;;
5995;SDS011;3026;53.612;7.278;2023-01-19T14:36:26;3.23;;;0.80;;
5995;SDS011;3026;53.612;7.278;2023-01-19T14:39:00;7.20;;;0.80;;
5995;SDS011;3026;53.612;7.278;2023-01-19T14:41:35;3.47;;;1.20;;
5995;SDS011;3026;53.612;7.278;2023-01-19T14:44:08;6.57;;;0.97;;
5995;SDS011;3026;53.612;7.278;2023-01-19T14:46:36;1.77;;;0.77;;
5995;SDS011;3026;53.612;7.278;2023-01-19T14:49:04;5.70;;;0.80;;
5995;SDS011;3026;53.612;7.278;2023-01-19T14:51:32;1.93;;;0.60;;
5995;SDS011;3026;53.612;7.278;2023-01-19T14:53:59;7.80;;;0.97;;
5995;SDS011;3026;53.612;7.278;2023-01-19T14:56:29;3.73;;;0.77;;
5995;SDS011;3026;53.612;7.278;2023-01-19T14:59:00;2.80;;;1.10;;
5995;SDS011;3026;53.612;7.278;2023-01-19T15:01:28;2.93;;;0.67;;
5995;SDS011;3026;53.612;7.278;2023-01-19T15:03:55;3.27;;;0.77;;
5995;SDS011;3026;53.612;7.278;2023-01-19T15:06:22;2.17;;;0.83;;
5995;SDS011;3026;53.612;7.278;2023-01-19T15:08:51;6.50;;;0.80;;
5995;SDS011;3026;53.612;7.278;2023-01-19T15:11:20;5.37;;;1.30;;
5995;SDS011;3026;53.612;7.278;2023-01-19T15:13:49;4.90;;;1.10;;
5995;SDS011;3026;53.612;7.278;2023-01-19T15:16:18;9.77;;;0.90;;
5995;SDS011;3026;53.612;7.278;2023-01-19T15:18:45;7.07;;;0.87;;
5995;SDS011;3026;53.612;7.278;2023-01-19T15:21:13;9.97;;;1.23;;
5995;SDS011;3026;53.612;7.278;2023-01-19T15:23:43;7.97;;;1.00;;
5995;SDS011;3026;53.612;7.278;2023-01-19T15:26:12;1.60;;;0.70;;
5995;SDS011;3026;53.612;7.278;2023-01-19T15:28:42;1.67;;;0.70;;
5995;SDS011;3026;53.612;7.278;2023-01-19T15:31:10;4.10;;;0.90;;
5995;SDS011;3026;53.612;7.278;2023-01-19T15:33:41;3.63;;;1.00;;
5995;SDS011;3026;53.612;7.278;2023-01-19T15:36:11;3.10;;;0.60;;
5995;SDS011;3026;53.612;7.278;2023-01-19T15:38:39;7.63;;;1.27;;
5995;SDS011;3026;53.612;7.278;2023-01-19T15:41:12;3.03;;;0.90;;
5995;SDS011;3026;53.612;7.278;2023-01-19T15:43:39;4.37;;;0.83;;
5995;SDS011;3026;53.612;7.278;2023-01-19T15:46:06;2.23;;;0.73;;
5995;SDS011;3026;53.612;7.278;2023-01-19T15:48:36;8.30;;;1.23;;